Time,TemperatureF,DewpointF,PressureIn,WindDirection,WindDirectionDegrees,WindSpeedMPH,WindSpeedGustMPH,Humidity,HourlyPrecipIn,Conditions,Clouds,dailyrainin,SoftwareType,DateUTC
2013-06-27 00:00:00,56.5,44.4,30.53,NE,45,0.0,1.0,64,0.00,,FEW,0.00,WeatherDisplay:10.37,2013-06-26 23:00:00,
2013-06-27 00:30:00,55.6,44.8,30.53,NE,45,0.0,3.0,67,0.00,,FEW,0.00,WeatherDisplay:10.37,2013-06-26 23:30:00,
2013-06-27 01:00:00,55.4,44.6,30.53,NE,45,0.0,0.0,67,0.00,,FEW,0.00,WeatherDisplay:10.37,2013-06-27 00:00:00,
2013-06-27 01:30:00,54.5,44.2,30.53,NE,45,0.0,0.0,68,0.00,,FEW,0.00,WeatherDisplay:10.37,2013-06-27 00:30:00,
2013-06-27 02:00:00,53.6,43.7,30.53,NE,45,0.0,0.0,69,0.00,,FEW,0.00,WeatherDisplay:10.37,2013-06-27 01:00:00,
2013-06-27 02:30:00,53.4,44.2,30.52,NE,45,0.0,0.0,71,0.00,,FEW,0.00,WeatherDisplay:10.37,2013-06-27 01:30:00,
2013-06-27 03:00:00,53.8,45.0,30.52,NE,45,0.0,0.0,72,0.00,,FEW,0.00,WeatherDisplay:10.37,2013-06-27 02:00:00,
2013-06-27 03:29:00,54.3,45.8,30.51,NE,45,0.0,0.0,73,0.00,,FEW,0.00,WeatherDisplay:10.37,2013-06-27 02:29:00,
2013-06-27 04:00:00,53.6,45.2,30.50,NE,45,0.0,1.0,73,0.00,,FEW,0.00,WeatherDisplay:10.37,2013-06-27 03:00:00,
2013-06-27 04:30:00,53.4,43.9,30.49,NE,45,0.0,0.0,70,0.00,,FEW,0.00,WeatherDisplay:10.37,2013-06-27 03:30:00,
2013-06-27 05:00:00,53.6,43.7,30.49,NE,45,0.0,1.0,69,0.00,,FEW,0.00,WeatherDisplay:10.37,2013-06-27 04:00:00,
2013-06-27 05:29:00,53.8,43.8,30.49,NE,45,0.0,1.0,69,0.00,,FEW,0.00,WeatherDisplay:10.37,2013-06-27 04:29:00,
2013-06-27 05:59:00,54.0,44.0,30.48,NE,45,0.0,1.0,69,0.00,,FEW,0.00,WeatherDisplay:10.37,2013-06-27 04:59:00,
2013-06-27 06:29:00,54.1,44.6,30.48,NE,45,0.0,0.0,70,0.00,,FEW,0.00,WeatherDisplay:10.37,2013-06-27 05:29:00,
2013-06-27 06:59:00,54.1,44.6,30.47,WSW,248,0.0,2.0,70,0.00,,FEW,0.00,WeatherDisplay:10.37,2013-06-27 05:59:00,
2013-06-27 07:29:00,54.7,45.1,30.46,WSW,248,0.0,5.0,70,0.00,,FEW,0.00,WeatherDisplay:10.37,2013-06-27 06:29:00,
2013-06-27 08:00:00,55.0,45.4,30.46,WSW,248,0.0,6.0,70,0.00,,FEW,0.00,WeatherDisplay:10.37,2013-06-27 07:00:00,
2013-06-27 08:29:00,55.6,45.9,30.46,WSW,248,0.0,3.0,70,0.00,,FEW,0.00,WeatherDisplay:10.37,2013-06-27 07:29:00,
2013-06-27 08:59:00,56.1,46.1,30.45,WSW,248,0.0,6.0,69,0.00,,FEW,0.00,WeatherDisplay:10.37,2013-06-27 07:59:00,
2013-06-27 09:29:00,57.2,47.5,30.44,WSW,248,0.0,4.0,70,0.00,,FEW,0.00,WeatherDisplay:10.37,2013-06-27 08:29:00,
2013-06-27 09:59:00,57.2,48.3,30.44,WSW,248,0.0,6.0,72,0.00,,FEW,0.00,WeatherDisplay:10.37,2013-06-27 08:59:00,
2013-06-27 10:29:00,57.2,48.3,30.44,WSW,248,0.0,0.0,72,0.00,,FEW,0.00,WeatherDisplay:10.37,2013-06-27 09:29:00,
2013-06-27 10:59:00,58.3,50.4,30.42,NE,42,0.0,0.0,75,0.01,RA,FEW,0.01,WeatherDisplay:10.37,2013-06-27 09:59:00,
2013-06-27 11:29:00,57.9,50.0,30.42,NE,45,0.0,0.0,75,0.00,,FEW,0.01,WeatherDisplay:10.37,2013-06-27 10:29:00,
2013-06-27 12:00:00,57.7,50.2,30.41,NE,45,0.0,4.0,76,0.01,,FEW,0.02,WeatherDisplay:10.37,2013-06-27 11:00:00,
2013-06-27 12:29:00,57.4,50.6,30.40,NE,45,0.0,3.0,78,0.01,CLR,FEW,0.04,WeatherDisplay:10.37,2013-06-27 11:29:00,
2013-06-27 12:59:00,58.1,51.6,30.40,NE,45,0.0,2.0,79,0.00,,FEW,0.04,WeatherDisplay:10.37,2013-06-27 11:59:00,
2013-06-27 13:29:00,58.9,52.4,30.39,NE,45,0.0,2.0,79,0.00,,FEW,0.04,WeatherDisplay:10.37,2013-06-27 12:29:00,
2013-06-27 13:59:00,59.5,53.4,30.38,NE,45,0.0,4.0,80,0.00,,FEW,0.04,WeatherDisplay:10.37,2013-06-27 12:59:00,
2013-06-27 14:29:00,60.4,54.2,30.37,NE,45,0.0,10.0,80,0.00,,FEW,0.04,WeatherDisplay:10.37,2013-06-27 13:29:00,
2013-06-27 14:59:00,61.0,54.8,30.36,NE,45,0.0,4.0,80,0.00,,FEW,0.04,WeatherDisplay:10.37,2013-06-27 13:59:00,
2013-06-27 15:29:00,61.5,55.3,30.35,NE,45,0.0,6.0,80,0.00,,FEW,0.04,WeatherDisplay:10.37,2013-06-27 14:29:00,
2013-06-27 15:59:00,62.1,55.8,30.34,NE,45,0.0,8.0,80,0.00,,FEW,0.04,WeatherDisplay:10.37,2013-06-27 14:59:00,
2013-06-27 16:29:00,62.6,56.3,30.33,NE,45,0.0,12.0,80,0.00,,FEW,0.04,WeatherDisplay:10.37,2013-06-27 15:29:00,
2013-06-27 16:59:00,63.5,57.2,30.33,NE,45,0.0,10.0,80,0.00,,FEW,0.04,WeatherDisplay:10.37,2013-06-27 15:59:00,
2013-06-27 17:29:00,63.5,57.2,30.33,NE,45,0.0,13.0,80,0.00,,FEW,0.04,WeatherDisplay:10.37,2013-06-27 16:29:00,
2013-06-27 17:59:00,63.8,57.5,30.32,NE,45,0.0,9.0,80,0.00,,FEW,0.04,WeatherDisplay:10.37,2013-06-27 16:59:00,
2013-06-27 18:29:00,63.9,57.2,30.31,NE,45,0.0,2.0,79,0.00,,FEW,0.04,WeatherDisplay:10.37,2013-06-27 17:29:00,
2013-06-27 18:59:00,63.7,57.0,30.31,NE,45,0.0,6.0,79,0.00,,FEW,0.04,WeatherDisplay:10.37,2013-06-27 17:59:00,
2013-06-27 19:29:00,63.7,56.7,30.30,NE,45,0.0,2.0,78,0.00,,FEW,0.04,WeatherDisplay:10.37,2013-06-27 18:29:00,
2013-06-27 19:59:00,64.6,58.0,30.30,NE,45,0.0,7.0,79,0.00,,FEW,0.04,WeatherDisplay:10.37,2013-06-27 18:59:00,
2013-06-27 20:29:00,64.8,58.1,30.30,NE,45,0.0,6.0,79,0.00,,FEW,0.04,WeatherDisplay:10.37,2013-06-27 19:29:00,
2013-06-27 20:59:00,64.1,57.1,30.30,NE,45,0.0,10.0,78,0.00,,FEW,0.04,WeatherDisplay:10.37,2013-06-27 19:59:00,
2013-06-27 21:29:00,63.6,56.6,30.30,NE,45,0.0,2.0,78,0.00,,FEW,0.04,WeatherDisplay:10.37,2013-06-27 20:29:00,
2013-06-27 21:59:00,63.1,56.2,30.30,NE,45,0.0,5.0,78,0.00,,FEW,0.04,WeatherDisplay:10.37,2013-06-27 20:59:00,
2013-06-27 22:29:00,62.6,55.6,30.31,NE,45,0.0,8.0,78,0.00,,FEW,0.04,WeatherDisplay:10.37,2013-06-27 21:29:00,
2013-06-27 22:59:00,62.2,55.3,30.31,NE,45,0.0,2.0,78,0.00,,FEW,0.04,WeatherDisplay:10.37,2013-06-27 21:59:00,